sensor_id;sensor_type;location;lat;lon;timestamp;pressure;altitude;pressure_sealevel;temperature;humidity
49063;BME280;34876;51.464;-0.150;2023-09-19T00:03:23;100729.13;;;23.21;45.87
49063;BME280;34876;51.464;-0.150;2023-09-19T00:05:52;100730.08;;;23.18;45.90
49063;BME280;34876;51.464;-0.150;2023-09-19T00:08:21;100728.89;;;23.19;45.95
49063;BME280;34876;51.464;-0.150;2023-09-19T00:10:51;100724.15;;;23.19;45.84
49063;BME280;34876;51.464;-0.150;2023-09-19T00:13:20;100728.89;;;23.19;45.89
49063;BME280;34876;51.464;-0.150;2023-09-19T00:15:49;100729.16;;;23.18;45.95
49063;BME280;34876;51.464;-0.150;2023-09-19T00:18:20;100726.36;;;23.18;45.91
49063;BME280;34876;51.464;-0.150;2023-09-19T00:20:50;100722.87;;;23.18;45.96
49063;BME280;34876;51.464;-0.150;2023-09-19T00:23:20;100723.51;;;23.16;45.97
49063;BME280;34876;51.464;-0.150;2023-09-19T00:25:50;100724.33;;;23.17;45.93
49063;BME280;34876;51.464;-0.150;2023-09-19T00:28:19;100720.57;;;23.18;45.90
49063;BME280;34876;51.464;-0.150;2023-09-19T00:30:48;100723.98;;;23.18;45.91
49063;BME280;34876;51.464;-0.150;2023-09-19T00:33:18;100724.34;;;23.18;45.90
49063;BME280;34876;51.464;-0.150;2023-09-19T00:35:48;100719.48;;;23.16;45.88
49063;BME280;34876;51.464;-0.150;2023-09-19T00:38:17;100717.56;;;23.17;45.82
49063;BME280;34876;51.464;-0.150;2023-09-19T00:40:47;100708.91;;;23.11;45.98
49063;BME280;34876;51.464;-0.150;2023-09-19T00:43:17;100713.88;;;23.15;45.87
49063;BME280;34876;51.464;-0.150;2023-09-19T00:45:48;100715.36;;;22.90;46.41
49063;BME280;34876;51.464;-0.150;2023-09-19T00:48:17;100720.48;;;23.10;45.94
49063;BME280;34876;51.464;-0.150;2023-09-19T00:50:48;100726.70;;;23.14;45.87
49063;BME280;34876;51.464;-0.150;2023-09-19T00:53:21;100735.62;;;23.14;45.86
49063;BME280;34876;51.464;-0.150;2023-09-19T00:55:51;100735.66;;;23.14;45.86
49063;BME280;34876;51.464;-0.150;2023-09-19T00:58:21;100738.30;;;23.14;45.81
49063;BME280;34876;51.464;-0.150;2023-09-19T01:00:51;100731.28;;;23.13;45.80
49063;BME280;34876;51.464;-0.150;2023-09-19T01:03:20;100732.27;;;23.13;45.77
49063;BME280;34876;51.464;-0.150;2023-09-19T01:05:50;100730.83;;;23.12;45.84
49063;BME280;34876;51.464;-0.150;2023-09-19T01:08:19;100732.45;;;23.13;45.76
49063;BME280;34876;51.464;-0.150;2023-09-19T01:10:52;100738.93;;;23.13;45.76
49063;BME280;34876;51.464;-0.150;2023-09-19T01:13:30;100742.38;;;23.12;45.78
49063;BME280;34876;51.464;-0.150;2023-09-19T01:16:07;100741.07;;;23.13;45.76
49063;BME280;34876;51.464;-0.150;2023-09-19T01:18:48;100739.35;;;23.12;45.77
49063;BME280;34876;51.464;-0.150;2023-09-19T01:21:27;100739.73;;;23.14;45.70
49063;BME280;34876;51.464;-0.150;2023-09-19T01:24:15;100737.53;;;23.13;45.74
49063;BME280;34876;51.464;-0.150;2023-09-19T01:27:02;100739.69;;;23.12;45.77
49063;BME280;34876;51.464;-0.150;2023-09-19T01:29:38;100739.87;;;23.11;45.74
49063;BME280;34876;51.464;-0.150;2023-09-19T01:32:09;100738.62;;;23.12;45.74
49063;BME280;34876;51.464;-0.150;2023-09-19T01:34:48;100737.84;;;23.13;45.66
49063;BME280;34876;51.464;-0.150;2023-09-19T01:37:18;100741.80;;;23.10;45.75
49063;BME280;34876;51.464;-0.150;2023-09-19T01:39:50;100744.32;;;23.13;45.64
49063;BME280;34876;51.464;-0.150;2023-09-19T01:42:28;100743.70;;;23.12;45.64
49063;BME280;34876;51.464;-0.150;2023-09-19T01:45:06;100742.68;;;23.13;45.63
49063;BME280;34876;51.464;-0.150;2023-09-19T01:47:46;100735.17;;;23.10;45.62
49063;BME280;34876;51.464;-0.150;2023-09-19T01:50:23;100733.65;;;23.12;45.60
49063;BME280;34876;51.464;-0.150;2023-09-19T01:52:57;100732.72;;;23.11;45.59
49063;BME280;34876;51.464;-0.150;2023-09-19T01:55:29;100736.57;;;23.11;45.58
49063;BME280;34876;51.464;-0.150;2023-09-19T01:58:06;100733.85;;;23.10;45.58
49063;BME280;34876;51.464;-0.150;2023-09-19T02:00:37;100730.61;;;23.11;45.57
49063;BME280;34876;51.464;-0.150;2023-09-19T02:03:11;100730.72;;;23.11;45.50
49063;BME280;34876;51.464;-0.150;2023-09-19T02:05:41;100730.95;;;23.09;45.57
49063;BME280;34876;51.464;-0.150;2023-09-19T02:08:10;100728.09;;;23.09;45.54
49063;BME280;34876;51.464;-0.150;2023-09-19T02:10:39;100725.97;;;23.09;45.52
49063;BME280;34876;51.464;-0.150;2023-09-19T02:13:08;100731.35;;;23.09;45.54
49063;BME280;34876;51.464;-0.150;2023-09-19T02:15:37;100731.49;;;23.10;45.47
49063;BME280;34876;51.464;-0.150;2023-09-19T02:18:07;100736.44;;;23.10;45.43
49063;BME280;34876;51.464;-0.150;2023-09-19T02:20:36;100738.93;;;23.10;45.47
49063;BME280;34876;51.464;-0.150;2023-09-19T02:23:06;100739.31;;;23.05;45.49
49063;BME280;34876;51.464;-0.150;2023-09-19T02:25:35;100741.75;;;23.07;45.49
49063;BME280;34876;51.464;-0.150;2023-09-19T02:28:04;100747.50;;;23.08;45.41
49063;BME280;34876;51.464;-0.150;2023-09-19T02:30:34;100753.21;;;23.08;45.46
49063;BME280;34876;51.464;-0.150;2023-09-19T02:33:03;100755.36;;;23.08;45.45
49063;BME280;34876;51.464;-0.150;2023-09-19T02:35:33;100757.41;;;23.08;45.41
49063;BME280;34876;51.464;-0.150;2023-09-19T02:38:02;100752.75;;;23.03;45.50
49063;BME280;34876;51.464;-0.150;2023-09-19T02:40:30;100750.22;;;23.07;45.45
49063;BME280;34876;51.464;-0.150;2023-09-19T02:42:59;100748.07;;;23.06;45.43
49063;BME280;34876;51.464;-0.150;2023-09-19T02:45:29;100749.93;;;23.06;45.42
49063;BME280;34876;51.464;-0.150;2023-09-19T02:47:58;100745.21;;;23.06;45.42
49063;BME280;34876;51.464;-0.150;2023-09-19T02:50:27;100737.79;;;23.05;45.44
49063;BME280;34876;51.464;-0.150;2023-09-19T02:52:56;100724.07;;;23.04;45.41
49063;BME280;34876;51.464;-0.150;2023-09-19T02:55:25;100721.51;;;23.05;45.40
49063;BME280;34876;51.464;-0.150;2023-09-19T02:57:54;100714.68;;;23.05;45.32
49063;BME280;34876;51.464;-0.150;2023-09-19T03:00:24;100721.36;;;23.05;45.38
49063;BME280;34876;51.464;-0.150;2023-09-19T03:02:54;100716.73;;;22.96;45.58
49063;BME280;34876;51.464;-0.150;2023-09-19T03:05:23;100719.67;;;22.91;45.68
49063;BME280;34876;51.464;-0.150;2023-09-19T03:07:53;100724.04;;;23.02;45.43
49063;BME280;34876;51.464;-0.150;2023-09-19T03:10:22;100718.27;;;23.04;45.37
49063;BME280;34876;51.464;-0.150;2023-09-19T03:12:52;100719.57;;;23.02;45.38
49063;BME280;34876;51.464;-0.150;2023-09-19T03:15:21;100717.88;;;23.03;45.33
49063;BME280;34876;51.464;-0.150;2023-09-19T03:17:50;100725.63;;;23.04;45.31
49063;BME280;34876;51.464;-0.150;2023-09-19T03:20:19;100721.01;;;23.02;45.33
49063;BME280;34876;51.464;-0.150;2023-09-19T03:22:48;100711.47;;;23.04;45.27
49063;BME280;34876;51.464;-0.150;2023-09-19T03:25:18;100708.42;;;23.02;45.28
49063;BME280;34876;51.464;-0.150;2023-09-19T03:27:46;100712.52;;;23.04;45.25
49063;BME280;34876;51.464;-0.150;2023-09-19T03:30:15;100712.08;;;23.03;45.31
49063;BME280;34876;51.464;-0.150;2023-09-19T03:32:46;100714.65;;;22.97;45.38
49063;BME280;34876;51.464;-0.150;2023-09-19T03:35:15;100720.59;;;23.02;45.27
49063;BME280;34876;51.464;-0.150;2023-09-19T03:37:44;100716.87;;;22.97;45.40
49063;BME280;34876;51.464;-0.150;2023-09-19T03:40:13;100717.27;;;23.03;45.23
49063;BME280;34876;51.464;-0.150;2023-09-19T03:42:43;100716.95;;;23.02;45.23
49063;BME280;34876;51.464;-0.150;2023-09-19T03:45:12;100710.34;;;23.01;45.28
49063;BME280;34876;51.464;-0.150;2023-09-19T03:47:41;100707.70;;;23.03;45.19
49063;BME280;34876;51.464;-0.150;2023-09-19T03:50:10;100699.17;;;22.98;45.30
49063;BME280;34876;51.464;-0.150;2023-09-19T03:52:39;100697.69;;;22.97;45.29
49063;BME280;34876;51.464;-0.150;2023-09-19T03:55:08;100689.69;;;22.90;45.38
49063;BME280;34876;51.464;-0.150;2023-09-19T03:57:37;100683.99;;;22.99;45.23
49063;BME280;34876;51.464;-0.150;2023-09-19T04:00:07;100681.47;;;23.00;45.21
49063;BME280;34876;51.464;-0.150;2023-09-19T04:02:37;100681.00;;;23.00;45.16
49063;BME280;34876;51.464;-0.150;2023-09-19T04:05:07;100677.43;;;23.00;45.20
49063;BME280;34876;51.464;-0.150;2023-09-19T04:07:36;100675.23;;;23.00;45.20
49063;BME280;34876;51.464;-0.150;2023-09-19T04:10:06;100675.23;;;22.99;45.20
49063;BME280;34876;51.464;-0.150;2023-09-19T04:12:34;100670.60;;;22.99;45.17
49063;BME280;34876;51.464;-0.150;2023-09-19T04:15:04;100664.88;;;23.00;45.14
49063;BME280;34876;51.464;-0.150;2023-09-19T04:17:34;100658.14;;;22.98;45.20
49063;BME280;34876;51.464;-0.150;2023-09-19T04:20:03;100652.83;;;22.94;45.01
49063;BME280;34876;51.464;-0.150;2023-09-19T04:22:32;100655.08;;;22.98;45.16
49063;BME280;34876;51.464;-0.150;2023-09-19T04:25:01;100652.37;;;22.98;45.15
49063;BME280;34876;51.464;-0.150;2023-09-19T04:27:30;100651.13;;;22.98;45.16
49063;BME280;34876;51.464;-0.150;2023-09-19T04:29:59;100648.17;;;22.97;45.19
49063;BME280;34876;51.464;-0.150;2023-09-19T04:32:28;100641.32;;;22.93;45.26
49063;BME280;34876;51.464;-0.150;2023-09-19T04:34:57;100636.82;;;22.97;45.19
49063;BME280;34876;51.464;-0.150;2023-09-19T04:37:26;100635.07;;;22.96;45.18
49063;BME280;34876;51.464;-0.150;2023-09-19T04:39:56;100633.06;;;22.95;45.21
49063;BME280;34876;51.464;-0.150;2023-09-19T04:42:25;100635.37;;;22.95;45.24
49063;BME280;34876;51.464;-0.150;2023-09-19T04:44:54;100631.79;;;22.95;45.22
49063;BME280;34876;51.464;-0.150;2023-09-19T04:47:23;100632.56;;;22.96;45.17
49063;BME280;34876;51.464;-0.150;2023-09-19T04:49:52;100628.38;;;22.94;45.23
49063;BME280;34876;51.464;-0.150;2023-09-19T04:52:21;100627.81;;;22.94;45.27
49063;BME280;34876;51.464;-0.150;2023-09-19T04:54:50;100628.27;;;22.92;45.28
49063;BME280;34876;51.464;-0.150;2023-09-19T04:57:19;100627.30;;;22.94;45.25
49063;BME280;34876;51.464;-0.150;2023-09-19T04:59:48;100627.66;;;22.95;45.26
49063;BME280;34876;51.464;-0.150;2023-09-19T05:02:17;100635.41;;;22.96;45.22
49063;BME280;34876;51.464;-0.150;2023-09-19T05:04:46;100636.60;;;22.96;45.22
49063;BME280;34876;51.464;-0.150;2023-09-19T05:07:15;100636.97;;;22.88;45.35
49063;BME280;34876;51.464;-0.150;2023-09-19T05:09:45;100637.90;;;22.94;45.30
49063;BME280;34876;51.464;-0.150;2023-09-19T05:12:15;100632.50;;;22.84;45.29
49063;BME280;34876;51.464;-0.150;2023-09-19T05:14:45;100636.01;;;22.93;45.32
49063;BME280;34876;51.464;-0.150;2023-09-19T05:17:14;100634.77;;;22.93;45.39
49063;BME280;34876;51.464;-0.150;2023-09-19T05:19:42;100637.93;;;22.94;45.32
49063;BME280;34876;51.464;-0.150;2023-09-19T05:22:11;100639.80;;;22.94;45.33
49063;BME280;34876;51.464;-0.150;2023-09-19T05:24:40;100641.53;;;22.94;45.36
49063;BME280;34876;51.464;-0.150;2023-09-19T05:27:10;100644.27;;;22.94;45.38
49063;BME280;34876;51.464;-0.150;2023-09-19T05:29:39;100640.43;;;22.93;45.39
49063;BME280;34876;51.464;-0.150;2023-09-19T05:32:08;100634.97;;;22.91;45.41
49063;BME280;34876;51.464;-0.150;2023-09-19T05:34:38;100632.33;;;22.61;46.21
49063;BME280;34876;51.464;-0.150;2023-09-19T05:37:07;100627.67;;;22.86;45.61
49063;BME280;34876;51.464;-0.150;2023-09-19T05:39:36;100629.57;;;22.91;45.50
49063;BME280;34876;51.464;-0.150;2023-09-19T05:42:07;100625.91;;;22.91;45.50
49063;BME280;34876;51.464;-0.150;2023-09-19T05:44:36;100621.45;;;22.93;45.47
49063;BME280;34876;51.464;-0.150;2023-09-19T05:47:06;100618.82;;;22.90;45.52
49063;BME280;34876;51.464;-0.150;2023-09-19T05:49:36;100615.24;;;22.91;45.53
49063;BME280;34876;51.464;-0.150;2023-09-19T05:52:05;100609.70;;;22.91;45.55
49063;BME280;34876;51.464;-0.150;2023-09-19T05:54:36;100599.37;;;22.90;45.55
49063;BME280;34876;51.464;-0.150;2023-09-19T05:57:07;100599.28;;;22.91;45.56
49063;BME280;34876;51.464;-0.150;2023-09-19T05:59:36;100598.31;;;22.91;45.56
49063;BME280;34876;51.464;-0.150;2023-09-19T06:02:05;100595.41;;;22.92;45.57
49063;BME280;34876;51.464;-0.150;2023-09-19T06:04:35;100592.25;;;22.90;45.62
49063;BME280;34876;51.464;-0.150;2023-09-19T06:07:03;100589.06;;;22.90;45.63
49063;BME280;34876;51.464;-0.150;2023-09-19T06:09:33;100586.95;;;22.87;45.71
49063;BME280;34876;51.464;-0.150;2023-09-19T06:12:03;100581.68;;;22.89;45.70
49063;BME280;34876;51.464;-0.150;2023-09-19T06:14:33;100575.32;;;22.90;45.71
49063;BME280;34876;51.464;-0.150;2023-09-19T06:17:04;100579.69;;;22.91;45.70
49063;BME280;34876;51.464;-0.150;2023-09-19T06:19:34;100573.78;;;22.82;45.91
49063;BME280;34876;51.464;-0.150;2023-09-19T06:22:04;100574.21;;;22.88;45.81
49063;BME280;34876;51.464;-0.150;2023-09-19T06:24:33;100572.00;;;22.53;46.59
49063;BME280;34876;51.464;-0.150;2023-09-19T06:27:03;100578.77;;;22.82;46.00
49063;BME280;34876;51.464;-0.150;2023-09-19T06:29:38;100577.14;;;22.51;46.77
49063;BME280;34876;51.464;-0.150;2023-09-19T06:32:07;100567.64;;;22.71;46.37
49063;BME280;34876;51.464;-0.150;2023-09-19T06:34:37;100562.54;;;22.36;47.24
49063;BME280;34876;51.464;-0.150;2023-09-19T06:37:06;100556.94;;;22.38;47.29
49063;BME280;34876;51.464;-0.150;2023-09-19T06:39:35;100561.95;;;22.77;46.28
49063;BME280;34876;51.464;-0.150;2023-09-19T06:42:05;100558.66;;;22.68;46.55
49063;BME280;34876;51.464;-0.150;2023-09-19T06:44:34;100556.41;;;22.53;47.53
49063;BME280;34876;51.464;-0.150;2023-09-19T06:47:03;100558.67;;;22.64;46.71
49063;BME280;34876;51.464;-0.150;2023-09-19T06:49:33;100556.97;;;22.65;46.70
49063;BME280;34876;51.464;-0.150;2023-09-19T06:52:02;100555.33;;;22.51;47.10
49063;BME280;34876;51.464;-0.150;2023-09-19T06:54:31;100550.70;;;22.80;46.38
49063;BME280;34876;51.464;-0.150;2023-09-19T06:56:59;100551.40;;;22.47;47.30
49063;BME280;34876;51.464;-0.150;2023-09-19T06:59:29;100555.78;;;22.55;47.07
49063;BME280;34876;51.464;-0.150;2023-09-19T07:02:00;100550.59;;;22.69;46.75
49063;BME280;34876;51.464;-0.150;2023-09-19T07:04:29;100551.68;;;22.67;46.86
49063;BME280;34876;51.464;-0.150;2023-09-19T07:06:58;100543.43;;;22.46;47.49
49063;BME280;34876;51.464;-0.150;2023-09-19T07:09:27;100534.00;;;22.78;46.61
49063;BME280;34876;51.464;-0.150;2023-09-19T07:11:56;100527.15;;;22.59;47.14
49063;BME280;34876;51.464;-0.150;2023-09-19T07:14:25;100518.87;;;22.83;46.54
49063;BME280;34876;51.464;-0.150;2023-09-19T07:16:54;100516.07;;;22.71;48.12
49063;BME280;34876;51.464;-0.150;2023-09-19T07:19:23;100515.38;;;22.45;47.58
49063;BME280;34876;51.464;-0.150;2023-09-19T07:21:52;100517.32;;;22.36;47.92
49063;BME280;34876;51.464;-0.150;2023-09-19T07:24:22;100516.82;;;22.52;47.51
49063;BME280;34876;51.464;-0.150;2023-09-19T07:26:50;100519.23;;;22.58;47.37
49063;BME280;34876;51.464;-0.150;2023-09-19T07:29:20;100516.18;;;22.72;46.98
49063;BME280;34876;51.464;-0.150;2023-09-19T07:31:49;100512.49;;;22.74;46.95
49063;BME280;34876;51.464;-0.150;2023-09-19T07:34:18;100513.02;;;22.53;47.54
49063;BME280;34876;51.464;-0.150;2023-09-19T07:36:48;100517.64;;;22.52;47.58
49063;BME280;34876;51.464;-0.150;2023-09-19T07:39:17;100506.76;;;22.66;47.38
49063;BME280;34876;51.464;-0.150;2023-09-19T07:41:47;100504.14;;;22.36;49.56
49063;BME280;34876;51.464;-0.150;2023-09-19T07:44:16;100500.85;;;22.72;47.13
49063;BME280;34876;51.464;-0.150;2023-09-19T07:46:45;100498.58;;;22.31;48.26
49063;BME280;34876;51.464;-0.150;2023-09-19T07:49:13;100494.00;;;22.68;47.28
49063;BME280;34876;51.464;-0.150;2023-09-19T07:51:42;100493.19;;;22.33;48.24
49063;BME280;34876;51.464;-0.150;2023-09-19T07:54:11;100493.03;;;22.68;47.38
49063;BME280;34876;51.464;-0.150;2023-09-19T07:56:40;100489.62;;;22.77;47.09
49063;BME280;34876;51.464;-0.150;2023-09-19T07:59:10;100490.51;;;22.65;48.50
49063;BME280;34876;51.464;-0.150;2023-09-19T08:01:39;100483.71;;;22.59;47.67
49063;BME280;34876;51.464;-0.150;2023-09-19T08:04:09;100492.01;;;22.44;48.17
49063;BME280;34876;51.464;-0.150;2023-09-19T08:06:37;100490.97;;;22.55;47.79
49063;BME280;34876;51.464;-0.150;2023-09-19T08:09:06;100482.49;;;22.80;47.11
49063;BME280;34876;51.464;-0.150;2023-09-19T08:11:35;100485.25;;;22.77;47.21
49063;BME280;34876;51.464;-0.150;2023-09-19T08:14:04;100493.50;;;22.12;49.25
49063;BME280;34876;51.464;-0.150;2023-09-19T08:16:33;100501.73;;;22.23;50.33
49063;BME280;34876;51.464;-0.150;2023-09-19T08:19:02;100503.24;;;22.19;48.96
49063;BME280;34876;51.464;-0.150;2023-09-19T08:21:30;100500.75;;;22.52;48.03
49063;BME280;34876;51.464;-0.150;2023-09-19T08:23:59;100505.97;;;22.49;48.15
49063;BME280;34876;51.464;-0.150;2023-09-19T08:26:29;100495.49;;;22.49;48.13
49063;BME280;34876;51.464;-0.150;2023-09-19T08:28:58;100491.04;;;22.64;49.31
49063;BME280;34876;51.464;-0.150;2023-09-19T08:31:27;100492.52;;;22.64;47.76
49063;BME280;34876;51.464;-0.150;2023-09-19T08:33:56;100493.70;;;22.57;47.96
49063;BME280;34876;51.464;-0.150;2023-09-19T08:36:24;100495.26;;;22.73;47.52
49063;BME280;34876;51.464;-0.150;2023-09-19T08:38:53;100490.03;;;22.45;48.27
49063;BME280;34876;51.464;-0.150;2023-09-19T08:41:23;100490.86;;;22.80;47.36
49063;BME280;34876;51.464;-0.150;2023-09-19T08:43:52;100486.93;;;22.51;48.21
49063;BME280;34876;51.464;-0.150;2023-09-19T08:46:25;100489.21;;;22.44;48.37
49063;BME280;34876;51.464;-0.150;2023-09-19T08:49:02;100487.95;;;22.66;47.83
49063;BME280;34876;51.464;-0.150;2023-09-19T08:51:41;100495.97;;;22.30;48.96
49063;BME280;34876;51.464;-0.150;2023-09-19T08:54:20;100494.16;;;22.39;50.37
49063;BME280;34876;51.464;-0.150;2023-09-19T08:56:51;100498.11;;;22.47;48.54
49063;BME280;34876;51.464;-0.150;2023-09-19T08:59:23;100486.99;;;22.66;47.90
49063;BME280;34876;51.464;-0.150;2023-09-19T09:01:55;100475.84;;;22.63;49.73
49063;BME280;34876;51.464;-0.150;2023-09-19T09:04:24;100485.13;;;22.67;47.92
49063;BME280;34876;51.464;-0.150;2023-09-19T09:06:55;100477.68;;;22.52;48.35
49063;BME280;34876;51.464;-0.150;2023-09-19T09:09:26;100476.91;;;22.04;49.69
49063;BME280;34876;51.464;-0.150;2023-09-19T09:11:57;100485.78;;;22.47;48.53
49063;BME280;34876;51.464;-0.150;2023-09-19T09:14:27;100475.29;;;22.42;48.73
49063;BME280;34876;51.464;-0.150;2023-09-19T09:16:57;100474.24;;;22.04;50.06
49063;BME280;34876;51.464;-0.150;2023-09-19T09:19:25;100482.76;;;22.14;49.50
49063;BME280;34876;51.464;-0.150;2023-09-19T09:22:06;100486.04;;;22.23;49.75
49063;BME280;34876;51.464;-0.150;2023-09-19T09:24:35;100498.61;;;22.38;49.71
49063;BME280;34876;51.464;-0.150;2023-09-19T09:27:06;100499.55;;;22.66;48.08
49063;BME280;34876;51.464;-0.150;2023-09-19T09:29:42;100489.27;;;22.39;48.82
49063;BME280;34876;51.464;-0.150;2023-09-19T09:32:20;100478.56;;;22.19;50.78
49063;BME280;34876;51.464;-0.150;2023-09-19T09:34:51;100491.84;;;22.49;49.23
49063;BME280;34876;51.464;-0.150;2023-09-19T09:37:21;100489.68;;;22.23;49.26
49063;BME280;34876;51.464;-0.150;2023-09-19T09:39:52;100495.23;;;22.30;49.08
49063;BME280;34876;51.464;-0.150;2023-09-19T09:42:30;100492.00;;;22.46;49.59
49063;BME280;34876;51.464;-0.150;2023-09-19T09:45:13;100487.37;;;21.93;51.25
49063;BME280;34876;51.464;-0.150;2023-09-19T09:47:44;100494.87;;;22.27;49.55
49063;BME280;34876;51.464;-0.150;2023-09-19T09:50:23;100487.17;;;22.69;48.07
49063;BME280;34876;51.464;-0.150;2023-09-19T09:52:52;100495.00;;;22.50;48.68
49063;BME280;34876;51.464;-0.150;2023-09-19T09:55:21;100489.18;;;22.01;50.31
49063;BME280;34876;51.464;-0.150;2023-09-19T09:58:15;100480.82;;;22.18;49.70
49063;BME280;34876;51.464;-0.150;2023-09-19T10:00:52;100469.29;;;21.97;50.12
49063;BME280;34876;51.464;-0.150;2023-09-19T10:03:31;100476.62;;;22.49;48.97
49063;BME280;34876;51.464;-0.150;2023-09-19T10:06:01;100472.45;;;22.34;49.07
49063;BME280;34876;51.464;-0.150;2023-09-19T10:08:30;100470.69;;;22.35;49.56
49063;BME280;34876;51.464;-0.150;2023-09-19T10:10:58;100468.94;;;22.50;49.11
49063;BME280;34876;51.464;-0.150;2023-09-19T10:13:29;100469.12;;;22.51;48.96
49063;BME280;34876;51.464;-0.150;2023-09-19T10:15:59;100470.01;;;22.32;49.08
49063;BME280;34876;51.464;-0.150;2023-09-19T10:18:36;100467.42;;;22.49;48.64
49063;BME280;34876;51.464;-0.150;2023-09-19T10:21:05;100479.07;;;22.52;48.55
49063;BME280;34876;51.464;-0.150;2023-09-19T10:23:34;100473.01;;;22.21;49.39
49063;BME280;34876;51.464;-0.150;2023-09-19T10:26:05;100470.32;;;22.47;49.02
49063;BME280;34876;51.464;-0.150;2023-09-19T10:28:35;100471.60;;;22.27;49.23
49063;BME280;34876;51.464;-0.150;2023-09-19T10:31:06;100472.17;;;22.33;49.02
49063;BME280;34876;51.464;-0.150;2023-09-19T10:33:36;100457.88;;;22.36;49.01
49063;BME280;34876;51.464;-0.150;2023-09-19T10:36:05;100460.63;;;22.63;48.28
49063;BME280;34876;51.464;-0.150;2023-09-19T10:38:37;100458.00;;;22.02;49.92
49063;BME280;34876;51.464;-0.150;2023-09-19T10:41:08;100450.88;;;22.27;49.52
49063;BME280;34876;51.464;-0.150;2023-09-19T10:43:39;100455.87;;;22.24;49.42
49063;BME280;34876;51.464;-0.150;2023-09-19T10:46:09;100459.14;;;22.45;49.02
49063;BME280;34876;51.464;-0.150;2023-09-19T10:48:38;100458.45;;;22.60;48.41
49063;BME280;34876;51.464;-0.150;2023-09-19T10:51:10;100456.32;;;21.57;52.02
49063;BME280;34876;51.464;-0.150;2023-09-19T10:53:45;100448.67;;;21.88;50.43
49063;BME280;34876;51.464;-0.150;2023-09-19T10:56:19;100448.94;;;22.46;48.89
49063;BME280;34876;51.464;-0.150;2023-09-19T10:58:49;100448.76;;;22.67;48.56
49063;BME280;34876;51.464;-0.150;2023-09-19T11:01:20;100452.26;;;22.65;48.44
49063;BME280;34876;51.464;-0.150;2023-09-19T11:04:20;100443.68;;;22.52;49.07
49063;BME280;34876;51.464;-0.150;2023-09-19T11:07:01;100450.34;;;22.57;49.00
49063;BME280;34876;51.464;-0.150;2023-09-19T11:09:48;100443.36;;;22.72;48.49
49063;BME280;34876;51.464;-0.150;2023-09-19T11:12:51;100452.72;;;22.48;49.21
49063;BME280;34876;51.464;-0.150;2023-09-19T11:16:24;100456.23;;;22.56;49.01
49063;BME280;34876;51.464;-0.150;2023-09-19T11:18:54;100464.10;;;22.41;50.44
49063;BME280;34876;51.464;-0.150;2023-09-19T11:21:41;100455.68;;;22.52;49.18
49063;BME280;34876;51.464;-0.150;2023-09-19T11:24:43;100456.69;;;22.45;49.28
49063;BME280;34876;51.464;-0.150;2023-09-19T11:27:14;100454.31;;;22.41;49.66
49063;BME280;34876;51.464;-0.150;2023-09-19T11:29:43;100456.07;;;22.59;49.48
49063;BME280;34876;51.464;-0.150;2023-09-19T11:32:12;100455.68;;;22.44;49.46
49063;BME280;34876;51.464;-0.150;2023-09-19T11:34:46;100458.47;;;22.63;48.89
49063;BME280;34876;51.464;-0.150;2023-09-19T11:38:03;100457.23;;;22.44;49.46
49063;BME280;34876;51.464;-0.150;2023-09-19T11:40:32;100457.98;;;22.59;49.08
49063;BME280;34876;51.464;-0.150;2023-09-19T11:43:28;100452.03;;;22.62;48.96
49063;BME280;34876;51.464;-0.150;2023-09-19T11:46:04;100458.58;;;22.59;49.05
49063;BME280;34876;51.464;-0.150;2023-09-19T11:48:35;100462.05;;;22.52;49.36
49063;BME280;34876;51.464;-0.150;2023-09-19T11:51:22;100448.90;;;22.12;51.58
49063;BME280;34876;51.464;-0.150;2023-09-19T11:53:52;100466.68;;;22.42;51.19
49063;BME280;34876;51.464;-0.150;2023-09-19T11:56:23;100459.24;;;21.86;51.36
49063;BME280;34876;51.464;-0.150;2023-09-19T11:58:53;100462.17;;;21.99;50.86
49063;BME280;34876;51.464;-0.150;2023-09-19T12:01:25;100455.55;;;22.31;50.09
49063;BME280;34876;51.464;-0.150;2023-09-19T12:03:57;100453.91;;;22.20;50.51
49063;BME280;34876;51.464;-0.150;2023-09-19T12:06:27;100452.76;;;22.08;51.88
49063;BME280;34876;51.464;-0.150;2023-09-19T12:08:56;100453.91;;;21.82;52.53
49063;BME280;34876;51.464;-0.150;2023-09-19T12:11:28;100447.73;;;22.03;50.89
49063;BME280;34876;51.464;-0.150;2023-09-19T12:13:58;100452.22;;;22.09;50.55
49063;BME280;34876;51.464;-0.150;2023-09-19T12:16:28;100450.09;;;22.35;50.92
49063;BME280;34876;51.464;-0.150;2023-09-19T12:18:57;100452.89;;;22.24;50.17
49063;BME280;34876;51.464;-0.150;2023-09-19T12:21:28;100453.81;;;22.39;49.73
49063;BME280;34876;51.464;-0.150;2023-09-19T12:24:07;100446.78;;;22.07;50.63
49063;BME280;34876;51.464;-0.150;2023-09-19T12:26:39;100434.97;;;22.30;50.26
49063;BME280;34876;51.464;-0.150;2023-09-19T12:29:16;100446.90;;;21.87;51.83
49063;BME280;34876;51.464;-0.150;2023-09-19T12:31:53;100439.72;;;22.15;52.74
49063;BME280;34876;51.464;-0.150;2023-09-19T12:34:23;100443.96;;;21.88;51.68
49063;BME280;34876;51.464;-0.150;2023-09-19T12:37:10;100447.85;;;22.25;50.24
49063;BME280;34876;51.464;-0.150;2023-09-19T12:39:41;100450.96;;;22.16;51.14
49063;BME280;34876;51.464;-0.150;2023-09-19T12:42:11;100447.01;;;22.38;49.93
49063;BME280;34876;51.464;-0.150;2023-09-19T12:44:42;100448.08;;;22.30;50.17
49063;BME280;34876;51.464;-0.150;2023-09-19T12:47:15;100439.69;;;22.05;51.19
49063;BME280;34876;51.464;-0.150;2023-09-19T12:50:16;100438.17;;;22.28;50.29
49063;BME280;34876;51.464;-0.150;2023-09-19T12:52:47;100436.67;;;22.27;51.81
49063;BME280;34876;51.464;-0.150;2023-09-19T12:55:24;100441.60;;;22.53;54.47
49063;BME280;34876;51.464;-0.150;2023-09-19T12:57:57;100435.11;;;22.56;49.55
49063;BME280;34876;51.464;-0.150;2023-09-19T13:00:35;100437.36;;;22.16;55.10
49063;BME280;34876;51.464;-0.150;2023-09-19T13:03:13;100437.19;;;22.33;50.37
49063;BME280;34876;51.464;-0.150;2023-09-19T13:05:51;100433.68;;;22.71;49.23